https://www.sia.aviation-civile.gouv.fr/schedulesTerrain de Zoufftgen

Cliquez sur l’image pour télécharger / Click on image to download

Attention: la fiche terrain représente des informations définies par l’exploitant pour un bon fonctionnement des opérations du site et non une carte VAC publiée par les autorités.

Nom

Zoufftgen

Code terrain

LF5755

Coordonnées GPS

N 49°26’57” E 06°07’32”

Elevation

750 ft
228 m

Radio

Auto information 123.50 MHz

Piste

400 x 40 m en herbe

QFU

15 / 33
Attention: Attérissage toujours 33 main gauche et décollage toujours 15

Vertical

1600 ft

 Tour de Piste

1200 ft

Type de plate-forme

Base ULM
Classe 2, Classe 3, Classe 4, Classe 6

Fonctionnement

PPR
Autorisation OBLIGATOIRE

Demande PPR: Aeroplume

Observation

Éviter le survol à basse altitude des villages de Kanfen et Zoufftgen ainsi que la maison du garde barrière (chemin de fer) au sud est de la piste.

Attention

ZRT centrale nucléaire de Cattenom rayon de 3 kms autour de la centrale.

La plateforme de Zoufftgen est dans la R45N3. Il est impératif de vérifier l’activité militaire du réseau de basse altitude.
www.sia.aviation-civile.gouv.fr

→ cartes AZBA

-> Cliquez et maintenez le bouton de la souris pour vous déplacer / Click and hold mouse button to move around


300_1614

Metar ELLX

Metar:

ELLX 270720Z 17005KT 0100 R24/0350N FG VV002 09/09 Q1026 NOSIG

QNH: 1026hPa
Température: 24°
Point de rosée:

Météo